sensor_id;sensor_type;location;lat;lon;timestamp;P1;durP1;ratioP1;P2;durP2;ratioP2
13795;SDS011;40911;51.552;9.874;2023-03-19T00:06:40;8.90;;;6.30;;
13795;SDS011;40911;51.552;9.874;2023-03-19T00:09:02;11.65;;;6.40;;
13795;SDS011;40911;51.552;9.874;2023-03-19T00:13:45;8.27;;;6.28;;
13795;SDS011;40911;51.552;9.874;2023-03-19T00:16:06;7.95;;;5.70;;
13795;SDS011;40911;51.552;9.874;2023-03-19T00:18:28;8.27;;;6.25;;
13795;SDS011;40911;51.552;9.874;2023-03-19T00:20:50;8.23;;;6.18;;
13795;SDS011;40911;51.552;9.874;2023-03-19T00:23:13;9.07;;;6.25;;
13795;SDS011;40911;51.552;9.874;2023-03-19T00:25:35;6.80;;;5.65;;
13795;SDS011;40911;51.552;9.874;2023-03-19T00:27:56;10.10;;;5.88;;
13795;SDS011;40911;51.552;9.874;2023-03-19T00:30:18;8.07;;;5.65;;
13795;SDS011;40911;51.552;9.874;2023-03-19T00:32:40;12.48;;;5.38;;
13795;SDS011;40911;51.552;9.874;2023-03-19T00:35:01;9.98;;;5.95;;
13795;SDS011;40911;51.552;9.874;2023-03-19T00:37:25;7.18;;;5.50;;
13795;SDS011;40911;51.552;9.874;2023-03-19T00:39:48;8.32;;;5.68;;
13795;SDS011;40911;51.552;9.874;2023-03-19T00:42:09;8.93;;;5.82;;
13795;SDS011;40911;51.552;9.874;2023-03-19T00:44:32;9.23;;;6.40;;
13795;SDS011;40911;51.552;9.874;2023-03-19T00:46:53;9.73;;;6.28;;
13795;SDS011;40911;51.552;9.874;2023-03-19T00:49:15;9.82;;;6.30;;
13795;SDS011;40911;51.552;9.874;2023-03-19T00:51:36;10.02;;;6.97;;
13795;SDS011;40911;51.552;9.874;2023-03-19T00:54:02;11.85;;;7.05;;
13795;SDS011;40911;51.552;9.874;2023-03-19T00:56:26;8.88;;;6.43;;
13795;SDS011;40911;51.552;9.874;2023-03-19T00:58:47;7.05;;;5.88;;
13795;SDS011;40911;51.552;9.874;2023-03-19T01:01:09;10.95;;;5.90;;
13795;SDS011;40911;51.552;9.874;2023-03-19T01:03:33;9.45;;;6.32;;
13795;SDS011;40911;51.552;9.874;2023-03-19T01:05:55;7.40;;;5.28;;
13795;SDS011;40911;51.552;9.874;2023-03-19T01:08:18;7.43;;;5.72;;
13795;SDS011;40911;51.552;9.874;2023-03-19T01:10:40;9.65;;;5.72;;
13795;SDS011;40911;51.552;9.874;2023-03-19T01:13:03;7.05;;;5.40;;
13795;SDS011;40911;51.552;9.874;2023-03-19T01:15:24;7.25;;;5.63;;
13795;SDS011;40911;51.552;9.874;2023-03-19T01:17:46;7.70;;;5.50;;
13795;SDS011;40911;51.552;9.874;2023-03-19T01:20:08;6.38;;;5.07;;
13795;SDS011;40911;51.552;9.874;2023-03-19T01:22:34;9.02;;;5.75;;
13795;SDS011;40911;51.552;9.874;2023-03-19T01:24:56;6.68;;;5.72;;
13795;SDS011;40911;51.552;9.874;2023-03-19T01:27:17;6.07;;;5.35;;
13795;SDS011;40911;51.552;9.874;2023-03-19T01:29:42;8.32;;;5.50;;
13795;SDS011;40911;51.552;9.874;2023-03-19T01:32:03;9.45;;;5.13;;
13795;SDS011;40911;51.552;9.874;2023-03-19T01:36:47;7.57;;;5.80;;
13795;SDS011;40911;51.552;9.874;2023-03-19T01:41:30;9.90;;;5.68;;
13795;SDS011;40911;51.552;9.874;2023-03-19T01:43:52;8.95;;;5.68;;
13795;SDS011;40911;51.552;9.874;2023-03-19T01:46:15;8.95;;;5.45;;
13795;SDS011;40911;51.552;9.874;2023-03-19T01:48:45;7.87;;;5.53;;
13795;SDS011;40911;51.552;9.874;2023-03-19T01:51:09;7.53;;;5.60;;
13795;SDS011;40911;51.552;9.874;2023-03-19T01:53:32;7.50;;;5.57;;
13795;SDS011;40911;51.552;9.874;2023-03-19T01:55:57;9.23;;;5.80;;
13795;SDS011;40911;51.552;9.874;2023-03-19T01:58:23;10.63;;;5.75;;
13795;SDS011;40911;51.552;9.874;2023-03-19T02:00:45;6.35;;;5.13;;
13795;SDS011;40911;51.552;9.874;2023-03-19T02:03:08;6.50;;;5.60;;
13795;SDS011;40911;51.552;9.874;2023-03-19T02:05:30;7.50;;;5.68;;
13795;SDS011;40911;51.552;9.874;2023-03-19T02:07:55;6.25;;;5.22;;
13795;SDS011;40911;51.552;9.874;2023-03-19T02:10:20;5.85;;;5.00;;
13795;SDS011;40911;51.552;9.874;2023-03-19T02:12:42;10.57;;;5.63;;
13795;SDS011;40911;51.552;9.874;2023-03-19T02:15:04;7.28;;;6.00;;
13795;SDS011;40911;51.552;9.874;2023-03-19T02:17:27;7.22;;;5.45;;
13795;SDS011;40911;51.552;9.874;2023-03-19T02:19:52;8.30;;;5.47;;
13795;SDS011;40911;51.552;9.874;2023-03-19T02:22:19;7.55;;;5.75;;
13795;SDS011;40911;51.552;9.874;2023-03-19T02:24:44;8.93;;;5.85;;
13795;SDS011;40911;51.552;9.874;2023-03-19T02:27:13;9.85;;;6.05;;
13795;SDS011;40911;51.552;9.874;2023-03-19T02:29:34;10.05;;;5.80;;
13795;SDS011;40911;51.552;9.874;2023-03-19T02:31:56;7.97;;;5.80;;
13795;SDS011;40911;51.552;9.874;2023-03-19T02:34:31;8.23;;;6.20;;
13795;SDS011;40911;51.552;9.874;2023-03-19T02:36:56;7.10;;;5.50;;
13795;SDS011;40911;51.552;9.874;2023-03-19T02:39:22;7.65;;;5.38;;
13795;SDS011;40911;51.552;9.874;2023-03-19T02:41:47;9.32;;;6.10;;
13795;SDS011;40911;51.552;9.874;2023-03-19T02:44:13;9.98;;;6.57;;
13795;SDS011;40911;51.552;9.874;2023-03-19T02:46:38;8.82;;;6.13;;
13795;SDS011;40911;51.552;9.874;2023-03-19T02:49:01;6.85;;;5.13;;
13795;SDS011;40911;51.552;9.874;2023-03-19T02:53:44;7.75;;;5.63;;
13795;SDS011;40911;51.552;9.874;2023-03-19T02:56:06;7.38;;;5.45;;
13795;SDS011;40911;51.552;9.874;2023-03-19T02:58:28;6.35;;;5.53;;
13795;SDS011;40911;51.552;9.874;2023-03-19T03:00:51;7.63;;;5.78;;
13795;SDS011;40911;51.552;9.874;2023-03-19T03:03:12;7.93;;;5.18;;
13795;SDS011;40911;51.552;9.874;2023-03-19T03:05:35;6.82;;;4.93;;
13795;SDS011;40911;51.552;9.874;2023-03-19T03:10:18;7.57;;;4.47;;
13795;SDS011;40911;51.552;9.874;2023-03-19T03:12:40;9.98;;;4.93;;
13795;SDS011;40911;51.552;9.874;2023-03-19T03:15:02;7.30;;;5.13;;
13795;SDS011;40911;51.552;9.874;2023-03-19T03:17:26;5.53;;;4.72;;
13795;SDS011;40911;51.552;9.874;2023-03-19T03:19:48;8.77;;;4.95;;
13795;SDS011;40911;51.552;9.874;2023-03-19T03:22:09;8.75;;;5.53;;
13795;SDS011;40911;51.552;9.874;2023-03-19T03:24:31;8.88;;;5.80;;
13795;SDS011;40911;51.552;9.874;2023-03-19T03:26:53;6.47;;;4.97;;
13795;SDS011;40911;51.552;9.874;2023-03-19T03:29:14;9.88;;;5.10;;
13795;SDS011;40911;51.552;9.874;2023-03-19T03:31:36;6.97;;;4.70;;
13795;SDS011;40911;51.552;9.874;2023-03-19T03:36:20;5.03;;;4.63;;
13795;SDS011;40911;51.552;9.874;2023-03-19T03:41:04;9.88;;;5.10;;
13795;SDS011;40911;51.552;9.874;2023-03-19T03:45:47;6.32;;;4.50;;
13795;SDS011;40911;51.552;9.874;2023-03-19T03:50:32;6.75;;;4.85;;
13795;SDS011;40911;51.552;9.874;2023-03-19T03:52:53;5.18;;;4.68;;
13795;SDS011;40911;51.552;9.874;2023-03-19T03:55:15;7.35;;;4.80;;
13795;SDS011;40911;51.552;9.874;2023-03-19T03:57:37;6.15;;;4.70;;
13795;SDS011;40911;51.552;9.874;2023-03-19T03:59:58;7.65;;;4.97;;
13795;SDS011;40911;51.552;9.874;2023-03-19T04:02:20;6.75;;;4.60;;
13795;SDS011;40911;51.552;9.874;2023-03-19T04:04:41;6.47;;;4.97;;
13795;SDS011;40911;51.552;9.874;2023-03-19T04:07:04;7.57;;;5.00;;
13795;SDS011;40911;51.552;9.874;2023-03-19T04:09:26;7.15;;;5.00;;
13795;SDS011;40911;51.552;9.874;2023-03-19T04:11:48;5.05;;;4.32;;
13795;SDS011;40911;51.552;9.874;2023-03-19T04:14:10;6.43;;;4.78;;
13795;SDS011;40911;51.552;9.874;2023-03-19T04:16:32;5.82;;;4.93;;
13795;SDS011;40911;51.552;9.874;2023-03-19T04:18:53;6.30;;;4.82;;
13795;SDS011;40911;51.552;9.874;2023-03-19T04:21:15;8.77;;;5.13;;
13795;SDS011;40911;51.552;9.874;2023-03-19T04:23:38;7.00;;;5.28;;
13795;SDS011;40911;51.552;9.874;2023-03-19T04:26:00;8.13;;;5.68;;
13795;SDS011;40911;51.552;9.874;2023-03-19T04:28:23;9.05;;;5.43;;
13795;SDS011;40911;51.552;9.874;2023-03-19T04:30:44;7.88;;;5.57;;
13795;SDS011;40911;51.552;9.874;2023-03-19T04:33:06;8.35;;;5.40;;
13795;SDS011;40911;51.552;9.874;2023-03-19T04:35:27;9.35;;;5.88;;
13795;SDS011;40911;51.552;9.874;2023-03-19T04:40:13;7.03;;;5.65;;
13795;SDS011;40911;51.552;9.874;2023-03-19T04:42:35;7.78;;;5.10;;
13795;SDS011;40911;51.552;9.874;2023-03-19T04:44:57;6.45;;;5.20;;
13795;SDS011;40911;51.552;9.874;2023-03-19T04:47:19;7.40;;;5.10;;
13795;SDS011;40911;51.552;9.874;2023-03-19T04:49:40;6.18;;;5.32;;
13795;SDS011;40911;51.552;9.874;2023-03-19T04:52:02;9.30;;;5.20;;
13795;SDS011;40911;51.552;9.874;2023-03-19T04:54:24;8.90;;;5.00;;
13795;SDS011;40911;51.552;9.874;2023-03-19T04:59:08;8.32;;;4.70;;
13795;SDS011;40911;51.552;9.874;2023-03-19T05:01:30;8.38;;;5.13;;
13795;SDS011;40911;51.552;9.874;2023-03-19T05:03:52;9.35;;;5.40;;
13795;SDS011;40911;51.552;9.874;2023-03-19T05:06:13;8.18;;;5.95;;
13795;SDS011;40911;51.552;9.874;2023-03-19T05:08:36;9.63;;;6.03;;
13795;SDS011;40911;51.552;9.874;2023-03-19T05:10:57;9.00;;;6.30;;
13795;SDS011;40911;51.552;9.874;2023-03-19T05:13:20;9.88;;;7.57;;
13795;SDS011;40911;51.552;9.874;2023-03-19T05:15:42;8.93;;;6.88;;
13795;SDS011;40911;51.552;9.874;2023-03-19T05:18:04;8.38;;;6.80;;
13795;SDS011;40911;51.552;9.874;2023-03-19T05:20:27;7.30;;;5.30;;
13795;SDS011;40911;51.552;9.874;2023-03-19T05:22:48;6.03;;;5.20;;
13795;SDS011;40911;51.552;9.874;2023-03-19T05:25:12;11.73;;;5.28;;
13795;SDS011;40911;51.552;9.874;2023-03-19T05:27:33;8.02;;;4.95;;
13795;SDS011;40911;51.552;9.874;2023-03-19T05:29:56;8.55;;;5.40;;
13795;SDS011;40911;51.552;9.874;2023-03-19T05:32:19;10.82;;;5.25;;
13795;SDS011;40911;51.552;9.874;2023-03-19T05:34:41;9.25;;;5.40;;
13795;SDS011;40911;51.552;9.874;2023-03-19T05:37:02;11.23;;;5.53;;
13795;SDS011;40911;51.552;9.874;2023-03-19T05:39:24;8.65;;;6.55;;
13795;SDS011;40911;51.552;9.874;2023-03-19T05:41:45;10.43;;;6.25;;
13795;SDS011;40911;51.552;9.874;2023-03-19T05:44:07;13.93;;;6.43;;
13795;SDS011;40911;51.552;9.874;2023-03-19T05:46:30;10.85;;;6.40;;
13795;SDS011;40911;51.552;9.874;2023-03-19T05:48:52;10.23;;;6.07;;
13795;SDS011;40911;51.552;9.874;2023-03-19T05:51:13;9.40;;;5.78;;
13795;SDS011;40911;51.552;9.874;2023-03-19T05:53:35;9.20;;;6.50;;
13795;SDS011;40911;51.552;9.874;2023-03-19T05:55:56;9.75;;;6.53;;
13795;SDS011;40911;51.552;9.874;2023-03-19T05:58:18;7.32;;;6.25;;
13795;SDS011;40911;51.552;9.874;2023-03-19T06:00:39;9.10;;;6.78;;
13795;SDS011;40911;51.552;9.874;2023-03-19T06:05:24;6.88;;;6.18;;
13795;SDS011;40911;51.552;9.874;2023-03-19T06:07:46;9.40;;;6.55;;
13795;SDS011;40911;51.552;9.874;2023-03-19T06:10:08;10.18;;;6.03;;
13795;SDS011;40911;51.552;9.874;2023-03-19T06:12:30;8.35;;;6.03;;
13795;SDS011;40911;51.552;9.874;2023-03-19T06:14:52;11.93;;;6.35;;
13795;SDS011;40911;51.552;9.874;2023-03-19T06:17:13;11.35;;;6.25;;
13795;SDS011;40911;51.552;9.874;2023-03-19T06:19:37;7.70;;;6.38;;
13795;SDS011;40911;51.552;9.874;2023-03-19T06:21:58;12.05;;;6.90;;
13795;SDS011;40911;51.552;9.874;2023-03-19T06:24:20;14.55;;;6.80;;
13795;SDS011;40911;51.552;9.874;2023-03-19T06:29:03;16.83;;;12.10;;
13795;SDS011;40911;51.552;9.874;2023-03-19T06:31:25;17.92;;;12.55;;
13795;SDS011;40911;51.552;9.874;2023-03-19T06:36:10;9.43;;;7.70;;
13795;SDS011;40911;51.552;9.874;2023-03-19T06:38:32;11.40;;;7.97;;
13795;SDS011;40911;51.552;9.874;2023-03-19T06:40:54;8.95;;;7.55;;
13795;SDS011;40911;51.552;9.874;2023-03-19T06:43:16;13.93;;;9.50;;
13795;SDS011;40911;51.552;9.874;2023-03-19T06:45:37;11.98;;;8.35;;
13795;SDS011;40911;51.552;9.874;2023-03-19T06:47:59;10.80;;;8.05;;
13795;SDS011;40911;51.552;9.874;2023-03-19T06:50:21;9.10;;;7.38;;
13795;SDS011;40911;51.552;9.874;2023-03-19T06:52:44;10.23;;;7.50;;
13795;SDS011;40911;51.552;9.874;2023-03-19T06:55:05;9.30;;;7.47;;
13795;SDS011;40911;51.552;9.874;2023-03-19T06:57:28;12.18;;;7.43;;
13795;SDS011;40911;51.552;9.874;2023-03-19T06:59:49;8.95;;;6.28;;
13795;SDS011;40911;51.552;9.874;2023-03-19T07:02:11;19.88;;;7.03;;
13795;SDS011;40911;51.552;9.874;2023-03-19T07:04:33;14.52;;;7.32;;
13795;SDS011;40911;51.552;9.874;2023-03-19T07:06:54;16.58;;;7.13;;
13795;SDS011;40911;51.552;9.874;2023-03-19T07:09:22;13.65;;;7.18;;
13795;SDS011;40911;51.552;9.874;2023-03-19T07:11:44;13.07;;;7.28;;
13795;SDS011;40911;51.552;9.874;2023-03-19T07:14:06;17.23;;;7.70;;
13795;SDS011;40911;51.552;9.874;2023-03-19T07:16:27;11.23;;;7.68;;
13795;SDS011;40911;51.552;9.874;2023-03-19T07:18:49;17.33;;;7.82;;
13795;SDS011;40911;51.552;9.874;2023-03-19T07:21:10;12.10;;;7.55;;
13795;SDS011;40911;51.552;9.874;2023-03-19T07:23:32;14.48;;;7.00;;
13795;SDS011;40911;51.552;9.874;2023-03-19T07:25:55;12.15;;;7.65;;
13795;SDS011;40911;51.552;9.874;2023-03-19T07:28:16;11.60;;;7.18;;
13795;SDS011;40911;51.552;9.874;2023-03-19T07:30:38;15.27;;;7.38;;
13795;SDS011;40911;51.552;9.874;2023-03-19T07:32:59;14.60;;;8.30;;
13795;SDS011;40911;51.552;9.874;2023-03-19T07:35:21;15.13;;;8.60;;
13795;SDS011;40911;51.552;9.874;2023-03-19T07:37:43;15.18;;;8.77;;
13795;SDS011;40911;51.552;9.874;2023-03-19T07:40:04;13.23;;;7.72;;
13795;SDS011;40911;51.552;9.874;2023-03-19T07:42:28;11.68;;;7.90;;
13795;SDS011;40911;51.552;9.874;2023-03-19T07:44:50;12.48;;;8.88;;
13795;SDS011;40911;51.552;9.874;2023-03-19T07:47:11;10.65;;;7.40;;
13795;SDS011;40911;51.552;9.874;2023-03-19T07:49:33;8.07;;;6.82;;
13795;SDS011;40911;51.552;9.874;2023-03-19T07:54:16;12.30;;;6.82;;
13795;SDS011;40911;51.552;9.874;2023-03-19T07:56:38;7.60;;;6.78;;
13795;SDS011;40911;51.552;9.874;2023-03-19T07:59:01;10.93;;;7.03;;
13795;SDS011;40911;51.552;9.874;2023-03-19T08:01:22;10.02;;;7.00;;
13795;SDS011;40911;51.552;9.874;2023-03-19T08:06:07;9.25;;;6.60;;
13795;SDS011;40911;51.552;9.874;2023-03-19T08:08:29;8.48;;;6.05;;
13795;SDS011;40911;51.552;9.874;2023-03-19T08:10:52;10.07;;;5.57;;
13795;SDS011;40911;51.552;9.874;2023-03-19T08:13:13;7.70;;;4.82;;
13795;SDS011;40911;51.552;9.874;2023-03-19T08:15:36;8.02;;;5.30;;
13795;SDS011;40911;51.552;9.874;2023-03-19T08:17:58;7.32;;;5.63;;
13795;SDS011;40911;51.552;9.874;2023-03-19T08:20:20;8.77;;;5.88;;
13795;SDS011;40911;51.552;9.874;2023-03-19T08:22:42;10.00;;;5.93;;
13795;SDS011;40911;51.552;9.874;2023-03-19T08:25:04;10.95;;;5.22;;
13795;SDS011;40911;51.552;9.874;2023-03-19T08:27:27;8.48;;;5.25;;
13795;SDS011;40911;51.552;9.874;2023-03-19T08:29:49;12.40;;;5.47;;
13795;SDS011;40911;51.552;9.874;2023-03-19T08:32:12;8.63;;;5.78;;
13795;SDS011;40911;51.552;9.874;2023-03-19T08:34:34;9.63;;;6.50;;
13795;SDS011;40911;51.552;9.874;2023-03-19T08:36:55;12.02;;;5.80;;
13795;SDS011;40911;51.552;9.874;2023-03-19T08:39:17;10.23;;;6.30;;
13795;SDS011;40911;51.552;9.874;2023-03-19T08:44:00;7.70;;;5.60;;
13795;SDS011;40911;51.552;9.874;2023-03-19T08:48:45;9.23;;;5.95;;
13795;SDS011;40911;51.552;9.874;2023-03-19T08:51:07;9.18;;;6.38;;
13795;SDS011;40911;51.552;9.874;2023-03-19T08:53:30;9.27;;;5.80;;
13795;SDS011;40911;51.552;9.874;2023-03-19T08:55:52;10.32;;;5.57;;
13795;SDS011;40911;51.552;9.874;2023-03-19T08:58:15;6.50;;;5.25;;
13795;SDS011;40911;51.552;9.874;2023-03-19T09:00:37;9.93;;;5.90;;
13795;SDS011;40911;51.552;9.874;2023-03-19T09:02:58;9.30;;;5.70;;
13795;SDS011;40911;51.552;9.874;2023-03-19T09:05:21;6.97;;;5.20;;
13795;SDS011;40911;51.552;9.874;2023-03-19T09:07:43;9.10;;;5.05;;
13795;SDS011;40911;51.552;9.874;2023-03-19T09:10:05;8.73;;;4.97;;
13795;SDS011;40911;51.552;9.874;2023-03-19T09:12:27;6.97;;;4.70;;
13795;SDS011;40911;51.552;9.874;2023-03-19T09:14:48;7.10;;;4.72;;
13795;SDS011;40911;51.552;9.874;2023-03-19T09:17:10;8.23;;;4.90;;
13795;SDS011;40911;51.552;9.874;2023-03-19T09:19:34;6.43;;;5.10;;
13795;SDS011;40911;51.552;9.874;2023-03-19T09:21:57;7.10;;;4.78;;
13795;SDS011;40911;51.552;9.874;2023-03-19T09:24:19;8.80;;;5.18;;
13795;SDS011;40911;51.552;9.874;2023-03-19T09:26:41;9.85;;;5.00;;
13795;SDS011;40911;51.552;9.874;2023-03-19T09:29:02;8.75;;;6.43;;
13795;SDS011;40911;51.552;9.874;2023-03-19T09:31:24;9.27;;;4.55;;
13795;SDS011;40911;51.552;9.874;2023-03-19T09:36:07;7.65;;;4.70;;
13795;SDS011;40911;51.552;9.874;2023-03-19T09:40:53;9.13;;;5.25;;
13795;SDS011;40911;51.552;9.874;2023-03-19T09:43:31;12.82;;;6.22;;
13795;SDS011;40911;51.552;9.874;2023-03-19T09:46:00;10.25;;;5.78;;
13795;SDS011;40911;51.552;9.874;2023-03-19T09:48:29;10.90;;;5.38;;
13795;SDS011;40911;51.552;9.874;2023-03-19T09:50:54;9.35;;;5.60;;
13795;SDS011;40911;51.552;9.874;2023-03-19T09:53:17;8.40;;;5.10;;
13795;SDS011;40911;51.552;9.874;2023-03-19T09:55:46;8.55;;;5.32;;
13795;SDS011;40911;51.552;9.874;2023-03-19T09:58:11;10.23;;;5.32;;
13795;SDS011;40911;51.552;9.874;2023-03-19T10:00:35;8.70;;;4.80;;
13795;SDS011;40911;51.552;9.874;2023-03-19T10:03:00;8.27;;;5.07;;
13795;SDS011;40911;51.552;9.874;2023-03-19T10:05:29;5.57;;;4.97;;
13795;SDS011;40911;51.552;9.874;2023-03-19T10:10:57;9.10;;;4.90;;
13795;SDS011;40911;51.552;9.874;2023-03-19T10:13:37;8.93;;;4.70;;
13795;SDS011;40911;51.552;9.874;2023-03-19T10:16:09;7.93;;;4.93;;
13795;SDS011;40911;51.552;9.874;2023-03-19T10:18:37;7.57;;;4.95;;
13795;SDS011;40911;51.552;9.874;2023-03-19T10:21:05;9.10;;;5.30;;
13795;SDS011;40911;51.552;9.874;2023-03-19T10:23:33;8.15;;;5.20;;
13795;SDS011;40911;51.552;9.874;2023-03-19T10:26:04;7.53;;;5.30;;
13795;SDS011;40911;51.552;9.874;2023-03-19T10:28:29;7.22;;;5.53;;
13795;SDS011;40911;51.552;9.874;2023-03-19T10:30:52;8.88;;;5.22;;
13795;SDS011;40911;51.552;9.874;2023-03-19T10:33:21;8.90;;;5.15;;
13795;SDS011;40911;51.552;9.874;2023-03-19T10:35:45;9.27;;;5.40;;
13795;SDS011;40911;51.552;9.874;2023-03-19T10:38:14;9.32;;;4.97;;
13795;SDS011;40911;51.552;9.874;2023-03-19T10:40:41;9.27;;;5.20;;
13795;SDS011;40911;51.552;9.874;2023-03-19T10:43:12;7.82;;;5.07;;
13795;SDS011;40911;51.552;9.874;2023-03-19T10:45:38;9.90;;;5.13;;
13795;SDS011;40911;51.552;9.874;2023-03-19T10:48:00;8.65;;;4.50;;
13795;SDS011;40911;51.552;9.874;2023-03-19T10:50:27;7.85;;;4.63;;
13795;SDS011;40911;51.552;9.874;2023-03-19T10:52:50;9.23;;;4.40;;
13795;SDS011;40911;51.552;9.874;2023-03-19T10:55:14;9.93;;;4.65;;
13795;SDS011;40911;51.552;9.874;2023-03-19T10:57:37;8.13;;;4.32;;
13795;SDS011;40911;51.552;9.874;2023-03-19T11:00:03;9.73;;;4.80;;
13795;SDS011;40911;51.552;9.874;2023-03-19T11:02:30;7.55;;;4.35;;
13795;SDS011;40911;51.552;9.874;2023-03-19T11:05:04;8.13;;;3.95;;
13795;SDS011;40911;51.552;9.874;2023-03-19T11:07:28;4.53;;;3.60;;
13795;SDS011;40911;51.552;9.874;2023-03-19T11:09:53;7.57;;;4.10;;
13795;SDS011;40911;51.552;9.874;2023-03-19T11:12:16;7.30;;;4.15;;
13795;SDS011;40911;51.552;9.874;2023-03-19T11:14:40;9.95;;;4.30;;
13795;SDS011;40911;51.552;9.874;2023-03-19T11:17:14;7.75;;;3.78;;
13795;SDS011;40911;51.552;9.874;2023-03-19T11:19:39;6.55;;;4.03;;
13795;SDS011;40911;51.552;9.874;2023-03-19T11:22:06;9.02;;;3.80;;
13795;SDS011;40911;51.552;9.874;2023-03-19T11:24:35;7.47;;;3.40;;
13795;SDS011;40911;51.552;9.874;2023-03-19T11:26:58;5.07;;;3.30;;
13795;SDS011;40911;51.552;9.874;2023-03-19T11:29:19;6.28;;;3.35;;
13795;SDS011;40911;51.552;9.874;2023-03-19T11:34:16;4.20;;;2.45;;
13795;SDS011;40911;51.552;9.874;2023-03-19T11:36:47;3.33;;;1.90;;
13795;SDS011;40911;51.552;9.874;2023-03-19T11:39:17;3.47;;;2.13;;
13795;SDS011;40911;51.552;9.874;2023-03-19T11:41:48;4.30;;;1.88;;
13795;SDS011;40911;51.552;9.874;2023-03-19T11:44:18;4.70;;;2.10;;
13795;SDS011;40911;51.552;9.874;2023-03-19T11:46:46;2.95;;;1.45;;
13795;SDS011;40911;51.552;9.874;2023-03-19T11:49:20;1.95;;;1.60;;
13795;SDS011;40911;51.552;9.874;2023-03-19T11:51:53;2.67;;;1.65;;
13795;SDS011;40911;51.552;9.874;2023-03-19T11:54:22;1.65;;;1.50;;
13795;SDS011;40911;51.552;9.874;2023-03-19T11:56:48;1.75;;;1.48;;
13795;SDS011;40911;51.552;9.874;2023-03-19T11:59:22;3.70;;;1.75;;
13795;SDS011;40911;51.552;9.874;2023-03-19T12:02:00;2.13;;;1.67;;
13795;SDS011;40911;51.552;9.874;2023-03-19T12:07:30;8.43;;;2.15;;
13795;SDS011;40911;51.552;9.874;2023-03-19T12:09:58;7.63;;;2.50;;
13795;SDS011;40911;51.552;9.874;2023-03-19T12:12:28;5.25;;;1.83;;
13795;SDS011;40911;51.552;9.874;2023-03-19T12:15:01;5.82;;;2.38;;
13795;SDS011;40911;51.552;9.874;2023-03-19T12:17:37;6.68;;;2.00;;
13795;SDS011;40911;51.552;9.874;2023-03-19T12:22:56;2.53;;;2.10;;
13795;SDS011;40911;51.552;9.874;2023-03-19T12:25:28;2.65;;;1.85;;
13795;SDS011;40911;51.552;9.874;2023-03-19T12:28:00;2.88;;;1.80;;
13795;SDS011;40911;51.552;9.874;2023-03-19T12:30:31;3.58;;;2.15;;
13795;SDS011;40911;51.552;9.874;2023-03-19T12:33:06;3.30;;;1.73;;
13795;SDS011;40911;51.552;9.874;2023-03-19T12:35:36;2.50;;;1.80;;
13795;SDS011;40911;51.552;9.874;2023-03-19T12:38:00;4.45;;;2.35;;
13795;SDS011;40911;51.552;9.874;2023-03-19T12:40:25;4.30;;;2.50;;
13795;SDS011;40911;51.552;9.874;2023-03-19T12:42:50;3.83;;;2.58;;
13795;SDS011;40911;51.552;9.874;2023-03-19T12:45:17;4.20;;;2.80;;
13795;SDS011;40911;51.552;9.874;2023-03-19T12:47:46;5.88;;;3.10;;
13795;SDS011;40911;51.552;9.874;2023-03-19T12:50:09;3.60;;;2.45;;
13795;SDS011;40911;51.552;9.874;2023-03-19T12:52:36;4.85;;;2.70;;
13795;SDS011;40911;51.552;9.874;2023-03-19T12:55:01;4.10;;;2.67;;
13795;SDS011;40911;51.552;9.874;2023-03-19T12:57:29;3.80;;;2.85;;
13795;SDS011;40911;51.552;9.874;2023-03-19T12:59:57;6.82;;;2.63;;
13795;SDS011;40911;51.552;9.874;2023-03-19T13:02:27;4.63;;;2.13;;
13795;SDS011;40911;51.552;9.874;2023-03-19T13:04:54;3.92;;;2.28;;
13795;SDS011;40911;51.552;9.874;2023-03-19T13:07:18;4.10;;;2.40;;
13795;SDS011;40911;51.552;9.874;2023-03-19T13:09:43;4.50;;;2.53;;
13795;SDS011;40911;51.552;9.874;2023-03-19T13:12:11;3.63;;;2.40;;
13795;SDS011;40911;51.552;9.874;2023-03-19T13:14:43;5.05;;;3.05;;
13795;SDS011;40911;51.552;9.874;2023-03-19T13:17:12;4.55;;;3.00;;
13795;SDS011;40911;51.552;9.874;2023-03-19T13:19:42;3.90;;;3.10;;
13795;SDS011;40911;51.552;9.874;2023-03-19T13:22:08;5.88;;;2.78;;
13795;SDS011;40911;51.552;9.874;2023-03-19T13:24:32;2.95;;;2.50;;
13795;SDS011;40911;51.552;9.874;2023-03-19T13:26:58;6.18;;;3.00;;
13795;SDS011;40911;51.552;9.874;2023-03-19T13:29:21;4.65;;;3.17;;
13795;SDS011;40911;51.552;9.874;2023-03-19T13:31:44;2.08;;;1.80;;
13795;SDS011;40911;51.552;9.874;2023-03-19T13:34:19;2.35;;;1.85;;
13795;SDS011;40911;51.552;9.874;2023-03-19T13:36:44;1.85;;;1.75;;
13795;SDS011;40911;51.552;9.874;2023-03-19T13:39:10;2.63;;;1.83;;
13795;SDS011;40911;51.552;9.874;2023-03-19T13:41:51;2.10;;;1.90;;
13795;SDS011;40911;51.552;9.874;2023-03-19T13:44:25;3.50;;;2.13;;
13795;SDS011;40911;51.552;9.874;2023-03-19T13:46:52;2.70;;;2.10;;
13795;SDS011;40911;51.552;9.874;2023-03-19T13:49:21;5.90;;;1.80;;
13795;SDS011;40911;51.552;9.874;2023-03-19T13:51:47;3.33;;;1.50;;
13795;SDS011;40911;51.552;9.874;2023-03-19T13:54:13;2.33;;;1.50;;
13795;SDS011;40911;51.552;9.874;2023-03-19T13:59:26;4.22;;;1.58;;
13795;SDS011;40911;51.552;9.874;2023-03-19T14:01:49;6.40;;;1.63;;
13795;SDS011;40911;51.552;9.874;2023-03-19T14:04:14;4.22;;;1.85;;
13795;SDS011;40911;51.552;9.874;2023-03-19T14:06:40;4.65;;;2.10;;
13795;SDS011;40911;51.552;9.874;2023-03-19T14:09:04;6.07;;;2.50;;
13795;SDS011;40911;51.552;9.874;2023-03-19T14:11:28;2.60;;;2.40;;
13795;SDS011;40911;51.552;9.874;2023-03-19T14:13:52;4.53;;;1.85;;
13795;SDS011;40911;51.552;9.874;2023-03-19T14:18:39;2.33;;;1.88;;
13795;SDS011;40911;51.552;9.874;2023-03-19T14:21:03;3.08;;;2.03;;
13795;SDS011;40911;51.552;9.874;2023-03-19T14:23:27;3.03;;;1.77;;
13795;SDS011;40911;51.552;9.874;2023-03-19T14:25:53;2.70;;;1.60;;
13795;SDS011;40911;51.552;9.874;2023-03-19T14:28:22;2.47;;;1.67;;
13795;SDS011;40911;51.552;9.874;2023-03-19T14:30:49;2.67;;;1.80;;
13795;SDS011;40911;51.552;9.874;2023-03-19T14:33:13;1.70;;;1.52;;
13795;SDS011;40911;51.552;9.874;2023-03-19T14:35:40;1.70;;;1.60;;
13795;SDS011;40911;51.552;9.874;2023-03-19T14:38:09;2.53;;;1.65;;
13795;SDS011;40911;51.552;9.874;2023-03-19T14:40:35;2.25;;;1.80;;
13795;SDS011;40911;51.552;9.874;2023-03-19T14:43:04;1.80;;;1.65;;
13795;SDS011;40911;51.552;9.874;2023-03-19T14:45:37;1.75;;;1.50;;
13795;SDS011;40911;51.552;9.874;2023-03-19T14:48:16;2.70;;;1.70;;
13795;SDS011;40911;51.552;9.874;2023-03-19T14:50:50;4.07;;;1.90;;
13795;SDS011;40911;51.552;9.874;2023-03-19T14:53:27;1.95;;;1.73;;
13795;SDS011;40911;51.552;9.874;2023-03-19T14:55:55;1.77;;;1.67;;
13795;SDS011;40911;51.552;9.874;2023-03-19T14:58:22;3.38;;;1.60;;
13795;SDS011;40911;51.552;9.874;2023-03-19T15:00:44;1.63;;;1.50;;
13795;SDS011;40911;51.552;9.874;2023-03-19T15:03:29;1.80;;;1.48;;
13795;SDS011;40911;51.552;9.874;2023-03-19T15:05:55;2.45;;;1.45;;
13795;SDS011;40911;51.552;9.874;2023-03-19T15:08:19;2.17;;;1.45;;
13795;SDS011;40911;51.552;9.874;2023-03-19T15:10:44;2.15;;;1.30;;
13795;SDS011;40911;51.552;9.874;2023-03-19T15:13:16;3.40;;;1.60;;
13795;SDS011;40911;51.552;9.874;2023-03-19T15:16:03;4.43;;;1.45;;
13795;SDS011;40911;51.552;9.874;2023-03-19T15:18:33;3.20;;;1.10;;
13795;SDS011;40911;51.552;9.874;2023-03-19T15:20:55;3.10;;;1.40;;
13795;SDS011;40911;51.552;9.874;2023-03-19T15:28:06;2.63;;;1.30;;
13795;SDS011;40911;51.552;9.874;2023-03-19T15:30:29;1.20;;;1.13;;
13795;SDS011;40911;51.552;9.874;2023-03-19T15:32:51;1.60;;;1.20;;
13795;SDS011;40911;51.552;9.874;2023-03-19T15:35:14;1.58;;;1.30;;
13795;SDS011;40911;51.552;9.874;2023-03-19T15:37:36;1.08;;;1.05;;
13795;SDS011;40911;51.552;9.874;2023-03-19T15:40:00;1.20;;;1.10;;
13795;SDS011;40911;51.552;9.874;2023-03-19T15:42:23;3.17;;;1.40;;